Startpagina
METAR-TAF:

METAR-TAF

Vliegvelden :

Vlissingen, Nederland

breedte: 51-27N, lengte: 3-36E, hoogte: 10 m

Actueel weer

Dit bericht is 40 minuten geleden gemaakt, om 22:55 UTC
Wind 2 kt uit variabele richting
Temperatuur 14°C
Vochtigheid 67%
Druk 1027 hPa
Zicht 10 km of meer

METAR: EHFS 122255Z AUTO VRB02KT 9999 NCD 14/08 Q1027

Tijdstip: 01:35 (23:35 UTC)


TAF: ontbreekt

Waarnemingen en weersverwachtingen van meer dan 4000 vliegvelden (METAR en TAF).

De beschikbare stations zijn de gele en rode punten op de kaart.

Ga met uw muis naar het station om de naam te zien.

Klik dan om waarnemingen en weersverwachtingen te zien.

kaart wijzigen: klik op de groene knoppen met een zwart kruis om in te zoomen, op de groene knop met een streepje om uit te zoomen of op de groene pijlen voor aangrenzende kaarten.


METAR-TAF: